Time;durP1;ratioP1;P1;durP2;ratioP2;P2;SDS_P1;SDS_P2;PMS_P1;PMS_P2;Temp;Humidity;BMP_temperature;BMP_pressure;BME280_temperature;BME280_humidity;BME280_pressure;Samples;Min_cycle;Max_cycle;Signal;HPM_P1;HPM_P2
2022/07/29 00:00:18;;;;;;;6.50;5.90;;;;;;;20.82;82.83;99809.44;5074690;28;20496;-87
2022/07/29 00:02:46;;;;;;;6.95;6.22;;;;;;;20.84;82.01;99806.09;5071732;28;20113;-89
2022/07/29 00:05:13;;;;;;;7.35;6.00;;;;;;;20.81;82.11;99804.31;5092415;28;20036;-90
2022/07/29 00:07:39;;;;;;;6.57;5.78;;;;;;;20.82;81.08;99803.81;5078294;28;20076;-90
2022/07/29 00:10:06;;;;;;;6.43;5.82;;;;;;;20.83;80.49;99804.56;5072613;28;20040;-90
2022/07/29 00:12:31;;;;;;;10.35;6.75;;;;;;;20.79;83.43;99801.22;5072982;28;20047;-90
2022/07/29 00:14:57;;;;;;;7.47;6.40;;;;;;;20.78;82.82;99806.13;5052106;28;20032;-89
2022/07/29 00:17:23;;;;;;;6.45;5.85;;;;;;;20.70;84.18;99788.19;5075198;28;20066;-90
2022/07/29 00:19:49;;;;;;;7.63;5.97;;;;;;;20.62;84.62;99792.81;5090776;28;20048;-90
2022/07/29 00:22:15;;;;;;;6.90;5.80;;;;;;;20.62;84.46;99797.66;5069098;28;20025;-89
2022/07/29 00:24:40;;;;;;;7.22;5.95;;;;;;;20.64;83.51;99790.22;5071509;28;20045;-89
2022/07/29 00:27:06;;;;;;;7.15;6.40;;;;;;;20.62;84.15;99792.81;5071927;28;20492;-89
2022/07/29 00:29:31;;;;;;;7.15;6.40;;;;;;;20.60;83.66;99788.94;5071812;28;20064;-89
2022/07/29 00:31:57;;;;;;;7.10;6.40;;;;;;;20.57;84.44;99793.56;5069736;28;20087;-89
2022/07/29 00:37:06;;;;;;;7.45;6.50;;;;;;;20.46;85.42;99785.09;5071036;28;20055;-87
2022/07/29 00:39:32;;;;;;;8.27;6.20;;;;;;;20.39;86.05;99792.00;5074507;28;20033;-87
2022/07/29 00:41:57;;;;;;;9.18;6.30;;;;;;;20.45;85.65;99783.56;5077778;28;20036;-87
2022/07/29 00:44:23;;;;;;;6.55;5.95;;;;;;;20.47;85.43;99793.03;5070516;28;20040;-87
2022/07/29 00:46:48;;;;;;;7.55;6.22;;;;;;;20.42;85.18;99795.88;5068943;28;20048;-87
2022/07/29 00:49:14;;;;;;;7.22;6.00;;;;;;;20.38;86.11;99790.44;5069622;28;20072;-87
2022/07/29 00:51:40;;;;;;;7.35;5.90;;;;;;;20.39;85.25;99792.00;5075319;28;20040;-87
2022/07/29 00:54:05;;;;;;;6.85;6.25;;;;;;;20.38;84.56;99789.72;5067019;28;20116;-87
2022/07/29 00:56:32;;;;;;;7.57;6.70;;;;;;;20.34;85.64;99800.47;5083672;28;20048;-87
2022/07/29 00:58:58;;;;;;;7.88;6.60;;;;;;;20.31;86.62;99793.00;5078194;28;20036;-87
2022/07/29 01:01:23;;;;;;;7.05;6.35;;;;;;;20.30;85.30;99788.69;5068330;28;20411;-87
2022/07/29 01:03:49;;;;;;;8.70;6.63;;;;;;;20.27;86.97;99790.41;5069888;28;20041;-87
2022/07/29 01:06:16;;;;;;;7.07;6.47;;;;;;;20.26;87.83;99799.41;5070413;28;20079;-87
2022/07/29 01:08:42;;;;;;;7.10;6.40;;;;;;;20.21;87.14;99803.72;5066957;28;20040;-87
2022/07/29 01:11:07;;;;;;;6.80;6.20;;;;;;;20.18;87.67;99804.72;5076871;28;20416;-87
2022/07/29 01:13:33;;;;;;;6.47;5.88;;;;;;;20.17;86.64;99797.56;5070546;28;20403;-87
2022/07/29 01:16:04;;;;;;;6.45;5.85;;;;;;;20.09;88.35;99796.53;5069014;28;20044;-87
2022/07/29 01:18:40;;;;;;;6.95;6.20;;;;;;;20.00;90.08;99793.94;5067142;28;20052;-86
2022/07/29 01:21:27;;;;;;;8.02;6.00;;;;;;;19.93;91.07;99789.59;5071933;28;20065;-87
2022/07/29 01:24:01;;;;;;;7.05;6.35;;;;;;;19.90;89.98;99789.81;5061372;28;20052;-87
2022/07/29 01:26:58;;;;;;;8.07;5.95;;;;;;;19.89;89.46;99794.69;5053875;28;20052;-87
2022/07/29 01:29:36;;;;;;;7.28;6.20;;;;;;;19.90;88.68;99787.00;5052965;28;20794;-87
2022/07/29 01:32:06;;;;;;;7.55;6.85;;;;;;;19.85;89.10;99788.53;5068635;28;20052;-87
2022/07/29 01:34:43;;;;;;;6.78;5.80;;;;;;;19.82;89.75;99788.75;5068509;28;20036;-87
2022/07/29 01:37:18;;;;;;;10.02;6.80;;;;;;;19.79;90.43;99784.16;5070291;28;20068;-87
2022/07/29 01:39:46;;;;;;;7.53;6.28;;;;;;;19.78;89.90;99779.78;5071997;28;20123;-87
2022/07/29 01:42:26;;;;;;;7.45;6.50;;;;;;;19.77;88.83;99786.72;5067179;28;20492;-87
2022/07/29 01:45:03;;;;;;;7.78;6.57;;;;;;;19.78;88.95;99783.38;5056559;28;20540;-87
2022/07/29 01:47:37;;;;;;;6.70;6.10;;;;;;;19.75;89.65;99783.63;5071101;28;20045;-88
2022/07/29 01:50:06;;;;;;;7.43;6.40;;;;;;;19.75;88.75;99772.38;5064013;28;20501;-87
2022/07/29 01:52:38;;;;;;;10.93;6.40;;;;;;;19.70;88.64;99773.88;5069166;28;20432;-87
2022/07/29 01:55:09;;;;;;;7.28;5.97;;;;;;;19.64;90.47;99775.16;5073404;28;20052;-87
2022/07/29 01:57:35;;;;;;;7.65;6.50;;;;;;;19.62;90.32;99775.66;5087293;28;20048;-87
2022/07/29 02:00:03;;;;;;;7.60;6.50;;;;;;;19.66;89.90;99784.59;5069033;28;20564;-87
2022/07/29 02:02:39;;;;;;;6.60;6.10;;;;;;;19.64;90.18;99777.97;5056778;28;20053;-87
2022/07/29 02:05:06;;;;;;;7.47;6.10;;;;;;;19.59;91.53;99771.03;5051866;28;20041;-87
2022/07/29 02:07:32;;;;;;;7.30;6.10;;;;;;;19.60;90.34;99775.41;5040923;28;20041;-87
2022/07/29 02:09:59;;;;;;;7.53;6.75;;;;;;;19.60;89.25;99763.38;5059773;28;20051;-87
2022/07/29 02:12:25;;;;;;;7.22;6.30;;;;;;;19.62;90.08;99772.06;5065237;28;20438;-87
2022/07/29 02:14:53;;;;;;;7.30;6.60;;;;;;;19.55;90.21;99774.09;5062041;28;20492;-87
2022/07/29 02:17:24;;;;;;;8.40;6.97;;;;;;;19.50;90.70;99774.06;5067986;28;20041;-87
2022/07/29 02:19:52;;;;;;;8.25;6.20;;;;;;;19.47;90.83;99770.22;5069361;28;20492;-88
2022/07/29 02:22:18;;;;;;;7.25;6.43;;;;;;;19.48;92.12;99765.38;5063418;28;20097;-87
2022/07/29 02:24:44;;;;;;;7.47;6.43;;;;;;;19.49;93.39;99767.66;5077407;28;20066;-87
2022/07/29 02:27:10;;;;;;;7.00;6.22;;;;;;;19.46;93.24;99767.91;5067073;28;20033;-88
2022/07/29 02:29:36;;;;;;;7.85;6.22;;;;;;;19.46;91.82;99765.88;5071769;28;20035;-88
2022/07/29 02:32:02;;;;;;;7.03;6.32;;;;;;;19.34;92.53;99755.81;5072910;28;20105;-88
2022/07/29 02:34:28;;;;;;;7.63;6.55;;;;;;;19.30;94.00;99749.66;5063482;28;20134;-87
2022/07/29 02:36:54;;;;;;;6.85;6.15;;;;;;;19.28;94.08;99763.47;5065467;28;20044;-87
2022/07/29 02:39:21;;;;;;;8.52;6.78;;;;;;;19.25;94.46;99744.00;5067605;28;20199;-87
2022/07/29 02:41:50;;;;;;;8.05;6.82;;;;;;;19.17;94.87;99751.38;5068672;28;20577;-88
2022/07/29 02:44:22;;;;;;;6.68;5.85;;;;;;;19.17;95.02;99740.88;5067061;28;20044;-88
2022/07/29 02:47:15;;;;;;;8.18;5.97;;;;;;;19.22;93.56;99754.22;5066554;28;20044;-88
2022/07/29 02:50:08;;;;;;;7.07;6.38;;;;;;;19.20;92.92;99745.53;5071252;28;20048;-88
2022/07/29 02:52:43;;;;;;;7.13;6.40;;;;;;;19.14;93.32;99747.53;5066646;28;20123;-88
2022/07/29 02:55:12;;;;;;;8.07;6.47;;;;;;;19.14;94.30;99753.13;5060662;28;20068;-87
2022/07/29 02:57:47;;;;;;;9.07;6.65;;;;;;;19.03;95.27;99748.25;5068833;28;20447;-87
2022/07/29 03:00:14;;;;;;;8.68;7.10;;;;;;;19.04;95.47;99754.63;5084725;28;20395;-87
2022/07/29 03:02:45;;;;;;;8.43;6.80;;;;;;;19.02;94.57;99757.94;5078835;28;20060;-87
2022/07/29 03:05:17;;;;;;;8.25;6.85;;;;;;;19.04;93.56;99752.59;5094666;28;20055;-87
2022/07/29 03:07:46;;;;;;;7.53;6.38;;;;;;;19.07;93.80;99759.25;5091937;28;20070;-88
2022/07/29 03:10:12;;;;;;;7.13;6.38;;;;;;;19.06;93.60;99757.69;5084503;28;20044;-87
2022/07/29 03:12:38;;;;;;;8.38;7.15;;;;;;;19.01;93.86;99745.13;5072802;28;20130;-87
2022/07/29 03:15:04;;;;;;;7.38;6.68;;;;;;;18.99;93.34;99758.16;5073900;28;20443;-88
2022/07/29 03:17:31;;;;;;;13.05;6.70;;;;;;;18.89;94.42;99754.00;5073944;28;20041;-87
2022/07/29 03:19:57;;;;;;;7.32;6.20;;;;;;;18.81;95.27;99750.13;5078829;28;20503;-87
2022/07/29 03:22:23;;;;;;;7.95;6.45;;;;;;;18.83;95.80;99756.78;5092985;28;20101;-88
2022/07/29 03:24:49;;;;;;;7.82;6.47;;;;;;;18.79;96.64;99755.47;5073873;28;20514;-87
2022/07/29 03:27:14;;;;;;;7.43;6.63;;;;;;;18.81;96.45;99761.34;5075304;28;20041;-87
2022/07/29 03:29:40;;;;;;;7.30;6.20;;;;;;;18.82;95.07;99760.88;5077873;28;20080;-87
2022/07/29 03:32:06;;;;;;;7.55;6.85;;;;;;;18.80;97.04;99755.00;5094732;28;20115;-87
2022/07/29 03:34:31;;;;;;;12.68;7.30;;;;;;;18.77;96.82;99753.16;5094474;28;20039;-88
2022/07/29 03:36:57;;;;;;;12.40;7.30;;;;;;;18.77;97.24;99744.72;5073622;28;20040;-88
2022/07/29 03:39:24;;;;;;;10.60;6.50;;;;;;;18.77;97.11;99750.34;5074941;28;20071;-87
2022/07/29 03:41:53;;;;;;;8.85;6.72;;;;;;;18.67;97.78;99751.81;5054365;28;20080;-87
2022/07/29 03:44:20;;;;;;;7.10;6.40;;;;;;;18.64;97.44;99750.75;5067009;28;20047;-87
2022/07/29 03:46:49;;;;;;;12.30;7.10;;;;;;;18.68;96.40;99761.03;5052566;28;20055;-87
2022/07/29 03:49:15;;;;;;;8.93;7.00;;;;;;;18.64;96.92;99761.25;5062577;28;20041;-87
2022/07/29 03:51:41;;;;;;;13.25;7.00;;;;;;;18.59;98.17;99745.91;5072741;28;20043;-87
2022/07/29 03:54:06;;;;;;;11.27;7.45;;;;;;;18.67;97.64;99759.47;5068070;28;20076;-87
2022/07/29 03:56:33;;;;;;;9.85;7.07;;;;;;;18.71;96.71;99760.00;5063218;28;20292;-87
2022/07/29 03:58:59;;;;;;;7.82;6.60;;;;;;;18.64;97.04;99759.19;5081837;28;20040;-87
2022/07/29 04:01:24;;;;;;;8.63;6.43;;;;;;;18.66;96.82;99763.53;5073228;28;20102;-87
2022/07/29 04:03:50;;;;;;;10.00;7.00;;;;;;;18.71;96.70;99760.00;5090787;28;20044;-87
2022/07/29 04:06:16;;;;;;;11.13;7.38;;;;;;;18.71;97.15;99762.81;5092411;28;20044;-87
2022/07/29 04:08:42;;;;;;;8.93;6.88;;;;;;;18.73;97.05;99757.47;5080776;28;20040;-87
2022/07/29 04:11:07;;;;;;;9.88;7.00;;;;;;;18.83;95.60;99758.81;5082834;28;20048;-86
2022/07/29 04:13:33;;;;;;;8.00;7.15;;;;;;;18.80;95.80;99762.66;5070565;28;20085;-86
2022/07/29 04:15:58;;;;;;;7.40;6.70;;;;;;;18.81;95.73;99764.16;5070557;28;20055;-86
2022/07/29 04:18:24;;;;;;;8.32;7.47;;;;;;;18.81;97.14;99759.31;5072557;28;20408;-86
2022/07/29 04:20:50;;;;;;;8.50;7.15;;;;;;;18.81;98.69;99758.53;5073910;28;20044;-87
2022/07/29 04:23:15;;;;;;;8.73;7.57;;;;;;;18.87;97.79;99767.78;5067353;28;20033;-86
2022/07/29 04:25:42;;;;;;;8.60;7.60;;;;;;;18.89;97.16;99763.22;5083760;28;20028;-87
2022/07/29 04:28:08;;;;;;;7.93;7.05;;;;;;;18.93;96.07;99765.78;5089610;28;20044;-87
2022/07/29 04:30:35;;;;;;;7.80;7.00;;;;;;;18.94;95.68;99764.50;5074801;28;20051;-86
2022/07/29 04:33:02;;;;;;;8.27;7.03;;;;;;;18.87;96.37;99762.19;5072427;28;20040;-87
2022/07/29 04:35:28;;;;;;;8.20;7.40;;;;;;;18.79;97.12;99773.13;5071721;28;20044;-85
2022/07/29 04:37:54;;;;;;;7.78;7.07;;;;;;;18.79;96.67;99775.91;5080518;28;20047;-86
2022/07/29 04:40:20;;;;;;;9.85;6.80;;;;;;;18.79;96.36;99772.34;5080383;28;20048;-86
2022/07/29 04:42:46;;;;;;;8.70;7.10;;;;;;;18.77;96.29;99774.88;5066977;28;20044;-88
2022/07/29 04:45:11;;;;;;;7.60;6.90;;;;;;;18.71;97.24;99776.88;5066004;28;20068;-86
2022/07/29 04:47:37;;;;;;;8.40;7.60;;;;;;;18.74;96.89;99776.66;5072620;28;20036;-88
2022/07/29 04:50:03;;;;;;;8.05;7.25;;;;;;;18.82;96.36;99782.56;5076225;28;20434;-86
2022/07/29 04:52:29;;;;;;;8.15;7.32;;;;;;;18.91;95.77;99782.38;5068565;28;20036;-87
2022/07/29 04:54:54;;;;;;;13.93;7.80;;;;;;;18.94;95.64;99773.72;5070867;28;20572;-89
2022/07/29 04:57:20;;;;;;;10.57;6.88;;;;;;;19.14;95.01;99778.44;5053998;28;20102;-89
2022/07/29 04:59:45;;;;;;;8.85;7.32;;;;;;;19.29;95.31;99767.78;5071763;28;20076;-88
2022/07/29 05:02:11;;;;;;;8.73;7.82;;;;;;;19.47;95.99;99780.69;5053781;28;20415;-88
2022/07/29 05:04:36;;;;;;;7.70;7.00;;;;;;;19.64;95.21;99772.34;5077635;22;20104;-84
2022/07/29 05:07:02;;;;;;;7.70;7.00;;;;;;;19.78;94.05;99776.97;5039187;28;20489;-84
2022/07/29 05:09:27;;;;;;;7.60;6.90;;;;;;;19.91;92.67;99777.28;5053460;28;20037;-84
2022/07/29 05:11:53;;;;;;;7.40;6.70;;;;;;;20.09;91.83;99778.88;5032926;28;20123;-84
2022/07/29 05:14:18;;;;;;;7.70;6.90;;;;;;;20.29;91.38;99773.03;5016475;28;20516;-83
2022/07/29 05:16:44;;;;;;;7.85;6.43;;;;;;;20.44;90.98;99779.97;5016427;28;20099;-84
2022/07/29 05:19:09;;;;;;;9.13;7.78;;;;;;;20.68;90.81;99784.31;5017040;28;20044;-83
2022/07/29 05:21:35;;;;;;;8.38;6.97;;;;;;;20.82;89.24;99788.94;5050977;23;20077;-84
2022/07/29 05:24:01;;;;;;;8.90;6.72;;;;;;;21.03;88.73;99787.38;5031454;28;20048;-84
2022/07/29 05:26:26;;;;;;;10.10;7.20;;;;;;;21.34;86.76;99792.72;5030623;28;20053;-84
2022/07/29 05:28:53;;;;;;;13.65;7.28;;;;;;;21.59;85.10;99787.25;5046977;28;20033;-84
2022/07/29 05:31:19;;;;;;;17.38;7.00;;;;;;;21.82;83.23;99795.13;5031919;28;20120;-84
2022/07/29 05:33:44;;;;;;;13.48;6.82;;;;;;;21.93;82.38;99794.31;5047241;28;20491;-84
2022/07/29 05:36:11;;;;;;;10.85;6.60;;;;;;;22.14;81.99;99795.50;5035063;28;20543;-84
2022/07/29 05:38:37;;;;;;;11.40;6.20;;;;;;;22.37;80.34;99798.16;5051415;28;20447;-86
2022/07/29 05:41:03;;;;;;;10.63;7.05;;;;;;;22.65;80.03;99798.72;5050064;28;20069;-86
2022/07/29 05:43:28;;;;;;;14.77;6.70;;;;;;;23.04;76.90;99804.06;5051521;28;20064;-85
2022/07/29 05:45:54;;;;;;;11.02;6.28;;;;;;;23.22;76.86;99809.78;5051271;28;20065;-86
2022/07/29 05:48:19;;;;;;;10.63;6.47;;;;;;;23.48;74.64;99809.31;5051390;28;20114;-84
2022/07/29 05:50:45;;;;;;;10.27;6.53;;;;;;;23.75;73.44;99806.66;5048774;28;20555;-84
2022/07/29 05:53:13;;;;;;;10.80;6.30;;;;;;;23.94;72.19;99807.47;5045220;28;20045;-84
2022/07/29 05:55:39;;;;;;;11.23;6.35;;;;;;;24.14;71.68;99810.53;5049814;28;20041;-83
2022/07/29 05:58:04;;;;;;;9.57;6.80;;;;;;;24.21;70.79;99805.56;5050679;28;20043;-83
2022/07/29 06:00:30;;;;;;;10.35;6.78;;;;;;;24.32;70.38;99806.16;5049687;28;20045;-85
2022/07/29 06:02:56;;;;;;;10.15;6.78;;;;;;;24.40;71.33;99809.91;5050780;28;20083;-86
2022/07/29 06:05:22;;;;;;;8.27;6.55;;;;;;;24.45;72.05;99814.75;5051156;28;20045;-86
2022/07/29 06:07:48;;;;;;;9.00;6.90;;;;;;;24.34;74.01;99811.31;5025528;28;20522;-86
2022/07/29 06:10:13;;;;;;;8.93;6.80;;;;;;;24.48;73.83;99810.06;5041440;28;20041;-86
2022/07/29 06:12:39;;;;;;;6.90;6.22;;;;;;;24.58;73.27;99802.69;5031933;28;20054;-85
2022/07/29 06:15:05;;;;;;;11.93;6.93;;;;;;;24.67;72.58;99807.19;5030785;28;20030;-84
2022/07/29 06:17:31;;;;;;;10.55;6.55;;;;;;;24.92;72.20;99806.50;5030852;28;20046;-84
2022/07/29 06:19:56;;;;;;;9.13;6.15;;;;;;;25.06;71.56;99793.13;5030285;28;20518;-82
2022/07/29 06:22:22;;;;;;;8.10;6.05;;;;;;;25.30;70.07;99795.00;5019852;28;20041;-83
2022/07/29 06:24:47;;;;;;;11.60;6.57;;;;;;;25.56;70.19;99800.72;5010759;28;20046;-82
2022/07/29 06:27:13;;;;;;;10.30;7.28;;;;;;;25.52;71.09;99811.59;5024427;28;20049;-82
2022/07/29 06:29:39;;;;;;;12.00;6.53;;;;;;;25.28;71.09;99814.66;5037282;28;20044;-82
2022/07/29 06:32:05;;;;;;;11.77;6.78;;;;;;;25.52;70.70;99812.41;5036592;28;20540;-82
2022/07/29 06:34:30;;;;;;;7.75;6.30;;;;;;;25.79;68.31;99807.47;5035328;28;20461;-84
2022/07/29 06:36:56;;;;;;;7.30;6.40;;;;;;;25.94;66.75;99821.88;5039193;28;20044;-84
2022/07/29 06:39:21;;;;;;;9.52;6.45;;;;;;;26.08;66.79;99819.03;5030381;28;20070;-85
2022/07/29 06:41:51;;;;;;;9.90;6.10;;;;;;;26.04;65.86;99824.28;5027754;28;20041;-84
2022/07/29 06:44:17;;;;;;;7.70;5.90;;;;;;;26.11;64.97;99820.75;5022390;28;20455;-84
2022/07/29 06:46:43;;;;;;;7.18;5.32;;;;;;;26.35;64.07;99824.09;5023003;28;20033;-86
2022/07/29 06:49:09;;;;;;;7.95;6.10;;;;;;;26.22;62.76;99829.81;5022552;28;20052;-83
2022/07/29 06:51:35;;;;;;;8.55;6.25;;;;;;;26.26;63.92;99821.72;5022109;28;20049;-83
2022/07/29 06:54:01;;;;;;;7.35;5.80;;;;;;;26.43;63.42;99824.97;5028212;28;20045;-83
2022/07/29 06:56:27;;;;;;;9.77;6.22;;;;;;;26.40;64.06;99814.69;5042506;28;20045;-82
2022/07/29 06:58:52;;;;;;;10.02;6.20;;;;;;;26.79;62.13;99816.59;5032583;28;20041;-82
2022/07/29 07:01:18;;;;;;;7.25;6.13;;;;;;;26.89;60.09;99814.78;5029197;28;20032;-82
2022/07/29 07:03:43;;;;;;;7.15;5.78;;;;;;;26.83;61.58;99816.25;5035941;28;20447;-82
2022/07/29 07:06:09;;;;;;;6.85;5.70;;;;;;;27.18;55.95;99812.00;5020814;28;20111;-82
2022/07/29 07:08:34;;;;;;;6.78;5.57;;;;;;;27.24;53.55;99806.94;5009300;28;20038;-82
2022/07/29 07:11:00;;;;;;;6.90;5.72;;;;;;;27.13;54.96;99812.91;5016925;28;20232;-82
2022/07/29 07:13:25;;;;;;;10.90;6.05;;;;;;;27.28;54.44;99801.63;5049733;28;20094;-83
2022/07/29 07:15:51;;;;;;;6.45;5.80;;;;;;;27.24;53.18;99809.78;5059698;28;20042;-83
2022/07/29 07:18:18;;;;;;;8.80;6.40;;;;;;;26.95;54.42;99800.44;5021165;28;20513;-83
2022/07/29 07:20:44;;;;;;;8.15;6.57;;;;;;;26.98;55.42;99809.94;5032739;28;20065;-83
2022/07/29 07:23:10;;;;;;;8.85;5.93;;;;;;;27.43;53.78;99812.34;5024541;28;20493;-83
2022/07/29 07:25:36;;;;;;;8.95;5.80;;;;;;;27.52;54.12;99806.19;5020895;28;20084;-83
2022/07/29 07:28:02;;;;;;;11.45;6.47;;;;;;;27.89;52.32;99810.56;5008705;28;20109;-83
2022/07/29 07:30:28;;;;;;;10.70;6.47;;;;;;;28.07;52.55;99813.09;5009263;28;20112;-83
2022/07/29 07:32:55;;;;;;;12.27;6.70;;;;;;;28.03;52.56;99815.56;5009878;28;20041;-82
2022/07/29 07:35:20;;;;;;;10.07;6.72;;;;;;;28.12;52.14;99820.00;5010557;28;20425;-83
2022/07/29 07:37:46;;;;;;;10.02;6.93;;;;;;;27.92;51.20;99820.84;5011107;28;20057;-83
2022/07/29 07:40:12;;;;;;;7.63;6.05;;;;;;;27.72;51.00;99820.38;5029346;28;20042;-83
2022/07/29 07:42:38;;;;;;;10.48;5.80;;;;;;;27.92;49.14;99821.59;5033092;28;20456;-83
2022/07/29 07:45:05;;;;;;;7.85;6.18;;;;;;;28.23;49.50;99805.38;5015350;28;20388;-83
2022/07/29 07:47:31;;;;;;;10.73;6.70;;;;;;;28.59;48.70;99811.03;5033474;28;20041;-83
2022/07/29 07:49:57;;;;;;;8.40;6.20;;;;;;;28.57;48.10;99805.88;5029571;28;20092;-83
2022/07/29 07:52:23;;;;;;;10.07;6.25;;;;;;;28.81;47.53;99806.69;5030738;28;20399;-82
2022/07/29 07:54:49;;;;;;;14.80;6.13;;;;;;;28.77;48.12;99815.63;5033191;28;20040;-82
2022/07/29 07:57:15;;;;;;;6.88;6.18;;;;;;;28.62;47.44;99824.16;5028687;28;20132;-82
2022/07/29 07:59:41;;;;;;;7.25;6.00;;;;;;;28.57;48.80;99823.00;5025209;28;20040;-82
2022/07/29 08:02:07;;;;;;;9.07;6.22;;;;;;;28.56;48.97;99823.56;5024997;28;20045;-82
2022/07/29 08:04:33;;;;;;;9.38;6.03;;;;;;;29.12;47.42;99828.19;5022706;28;20531;-82
2022/07/29 08:06:59;;;;;;;6.85;6.05;;;;;;;29.47;47.31;99821.53;5027361;28;20120;-82
2022/07/29 08:09:26;;;;;;;7.28;5.72;;;;;;;29.74;46.48;99821.09;5024452;28;20057;-82
2022/07/29 08:11:52;;;;;;;14.20;6.22;;;;;;;29.93;44.11;99821.44;5028783;28;20080;-83
2022/07/29 08:14:18;;;;;;;7.00;5.32;;;;;;;29.97;43.39;99828.28;5024459;28;20037;-83
2022/07/29 08:16:44;;;;;;;11.27;6.13;;;;;;;30.05;44.25;99828.25;5026949;28;20129;-83
2022/07/29 08:19:09;;;;;;;6.78;5.40;;;;;;;30.29;43.69;99824.69;5024507;28;20061;-83
2022/07/29 08:21:35;;;;;;;6.78;5.95;;;;;;;30.27;44.03;99835.97;5023354;28;20049;-83
2022/07/29 08:26:45;;;;;;;6.63;5.63;;;;;;;30.49;44.27;99829.38;5026059;28;20494;-83
2022/07/29 08:29:11;;;;;;;6.13;5.53;;;;;;;30.59;41.75;99829.53;5010294;28;20052;-83
2022/07/29 08:31:38;;;;;;;6.70;5.60;;;;;;;30.41;44.04;99819.31;5022090;28;20124;-82
2022/07/29 08:34:04;;;;;;;9.02;5.38;;;;;;;30.51;43.46;99823.84;5024923;28;20049;-82
2022/07/29 08:36:31;;;;;;;7.43;5.65;;;;;;;30.63;43.39;99829.13;5023442;28;20495;-83
2022/07/29 08:38:57;;;;;;;9.32;5.97;;;;;;;30.85;43.67;99828.22;5029274;28;20099;-83
2022/07/29 08:41:23;;;;;;;6.60;5.85;;;;;;;30.47;44.36;99831.31;5022196;28;20403;-82
2022/07/29 08:43:50;;;;;;;7.57;5.90;;;;;;;30.11;44.98;99834.53;5020251;28;20029;-82
2022/07/29 08:46:16;;;;;;;6.32;5.65;;;;;;;30.18;44.93;99824.38;5022141;28;20044;-82
2022/07/29 08:48:42;;;;;;;9.02;5.93;;;;;;;30.24;43.74;99827.81;5022311;28;20053;-83
2022/07/29 08:51:12;;;;;;;7.68;5.55;;;;;;;30.15;41.73;99829.16;5029946;28;20081;-82
2022/07/29 08:53:41;;;;;;;7.30;5.35;;;;;;;30.01;42.84;99827.88;5010755;28;20096;-83
2022/07/29 08:56:06;;;;;;;8.90;5.60;;;;;;;29.99;43.07;99819.13;5011034;28;20053;-82
2022/07/29 08:58:33;;;;;;;12.43;5.50;;;;;;;30.26;43.65;99828.72;5012373;28;20034;-82
2022/07/29 09:01:01;;;;;;;8.57;5.88;;;;;;;30.40;43.19;99823.53;5012237;28;20038;-83
2022/07/29 09:03:30;;;;;;;7.97;5.43;;;;;;;30.61;41.42;99826.09;5012090;28;20128;-82
2022/07/29 09:05:56;;;;;;;9.85;5.45;;;;;;;30.76;41.87;99823.13;5011228;28;20052;-85
2022/07/29 09:08:22;;;;;;;6.10;5.10;;;;;;;30.67;40.18;99818.03;5030764;28;20053;-85
2022/07/29 09:10:49;;;;;;;8.50;5.13;;;;;;;30.88;41.47;99827.03;5034746;28;20033;-85
2022/07/29 09:13:14;;;;;;;7.32;5.38;;;;;;;31.06;39.57;99811.44;5050438;28;20103;-85
2022/07/29 09:15:40;;;;;;;8.40;5.15;;;;;;;31.35;40.85;99806.78;5050693;28;20044;-85
2022/07/29 09:18:05;;;;;;;7.20;5.40;;;;;;;31.72;39.77;99816.38;5031971;28;20133;-85
2022/07/29 09:23:15;;;;;;;5.70;5.10;;;;;;;31.53;39.91;99810.44;5025425;28;20046;-85
2022/07/29 09:25:41;;;;;;;8.23;5.35;;;;;;;31.30;38.22;99819.25;5025000;28;20553;-85
2022/07/29 09:28:11;;;;;;;9.90;5.53;;;;;;;31.57;39.79;99818.66;5023990;28;20076;-85
2022/07/29 09:30:58;;;;;;;9.43;5.63;;;;;;;31.90;39.18;99820.00;5028231;28;20414;-85
2022/07/29 09:33:30;;;;;;;6.93;5.20;;;;;;;32.28;38.16;99813.78;5010369;28;20057;-85
2022/07/29 09:36:03;;;;;;;8.88;4.82;;;;;;;32.52;35.80;99815.00;5018307;28;20368;-83
2022/07/29 09:38:28;;;;;;;6.43;4.70;;;;;;;32.09;35.53;99820.19;5021915;28;20395;-85
2022/07/29 09:40:59;;;;;;;4.78;4.28;;;;;;;32.10;34.09;99815.19;5021029;28;20069;-85
2022/07/29 09:43:24;;;;;;;6.95;5.22;;;;;;;32.22;35.08;99805.47;5019948;28;20052;-82
2022/07/29 09:45:50;;;;;;;5.05;4.55;;;;;;;32.13;33.82;99799.66;5021055;28;20030;-83
2022/07/29 09:48:22;;;;;;;7.15;4.82;;;;;;;32.14;35.78;99810.56;5022789;28;20124;-83
2022/07/29 09:50:50;;;;;;;7.57;4.80;;;;;;;32.19;36.00;99798.03;5020534;28;20046;-83
2022/07/29 09:53:33;;;;;;;8.57;4.90;;;;;;;32.53;36.21;99813.63;5021286;28;20502;-83
2022/07/29 09:55:58;;;;;;;7.35;4.75;;;;;;;32.58;35.25;99815.50;5019840;28;20041;-83
2022/07/29 09:58:24;;;;;;;5.88;4.28;;;;;;;32.47;35.75;99813.16;5020294;28;20083;-83
2022/07/29 10:00:51;;;;;;;6.18;4.57;;;;;;;32.69;32.63;99806.34;5018533;28;20072;-83
2022/07/29 10:03:17;;;;;;;7.13;4.50;;;;;;;32.99;32.94;99807.97;5020267;28;20046;-85
2022/07/29 10:05:44;;;;;;;5.88;4.38;;;;;;;33.17;31.94;99809.41;5024502;28;20080;-85
2022/07/29 10:08:12;;;;;;;6.45;4.72;;;;;;;33.20;30.12;99806.09;5023911;28;20037;-85
2022/07/29 10:10:44;;;;;;;7.93;4.40;;;;;;;33.32;29.89;99803.41;5022683;28;20041;-85
2022/07/29 10:13:13;;;;;;;;;;;;;;;33.37;30.89;99799.47;5023339;28;20121;-85
2022/07/29 10:15:40;;;;;;;6.18;4.30;;;;;;;33.24;29.45;99809.28;5025545;28;19917;-85
2022/07/29 10:18:11;;;;;;;6.97;4.00;;;;;;;33.46;30.41;99812.34;5023412;28;20058;-85
2022/07/29 10:20:38;;;;;;;5.57;4.20;;;;;;;33.50;30.18;99795.41;5016630;28;20045;-85
2022/07/29 10:23:03;;;;;;;6.45;4.75;;;;;;;33.64;30.36;99787.84;5018331;28;20514;-85
2022/07/29 10:25:29;;;;;;;6.72;4.40;;;;;;;33.96;28.72;99784.53;5021340;28;20037;-85
2022/07/29 10:27:55;;;;;;;6.07;4.13;;;;;;;33.83;28.30;99787.88;5022173;28;20069;-86
2022/07/29 10:30:22;;;;;;;5.22;4.45;;;;;;;34.06;29.29;99782.41;5022169;28;20053;-85
2022/07/29 10:33:18;;;;;;;6.35;4.30;;;;;;;34.15;28.94;99784.53;5019282;28;20462;-83
2022/07/29 10:35:47;;;;;;;6.68;4.25;;;;;;;33.89;28.84;99791.19;5011333;28;20042;-83
2022/07/29 10:38:31;;;;;;;6.05;5.00;;;;;;;33.69;30.19;99790.44;5020522;28;20045;-83
2022/07/29 10:41:27;;;;;;;7.07;4.30;;;;;;;33.69;30.26;99786.81;5018306;28;20430;-83
2022/07/29 10:44:14;;;;;;;8.23;4.55;;;;;;;34.16;30.01;99780.31;5023916;28;20090;-83
2022/07/29 10:46:40;;;;;;;8.10;4.45;;;;;;;34.50;29.52;99772.59;5025828;28;20530;-83
2022/07/29 10:49:08;;;;;;;6.50;4.20;;;;;;;34.39;28.61;99773.25;5020799;28;20046;-83
2022/07/29 10:52:00;;;;;;;6.95;4.40;;;;;;;34.30;27.16;99762.53;5028049;28;20242;-83
2022/07/29 10:54:35;;;;;;;7.13;4.32;;;;;;;34.55;28.81;99768.66;5008220;28;20514;-82
2022/07/29 10:57:15;;;;;;;8.98;4.47;;;;;;;34.85;27.18;99767.97;5020976;28;20140;-83
2022/07/29 10:59:45;;;;;;;8.70;4.57;;;;;;;34.81;27.84;99761.91;5021569;28;20042;-83
2022/07/29 11:02:32;;;;;;;6.93;4.60;;;;;;;34.95;28.68;99759.25;5017911;28;20041;-83
2022/07/29 11:04:57;;;;;;;8.85;4.15;;;;;;;34.78;28.01;99763.13;5018034;28;20124;-82
2022/07/29 11:07:23;;;;;;;5.90;4.78;;;;;;;33.94;28.95;99757.72;5023105;28;20109;-83
2022/07/29 11:10:14;;;;;;;5.80;4.38;;;;;;;34.27;29.10;99749.34;5023752;28;20414;-83
2022/07/29 11:12:46;;;;;;;5.63;4.40;;;;;;;34.32;27.87;99757.69;5024303;28;20057;-83
2022/07/29 11:15:18;;;;;;;7.82;4.50;;;;;;;33.81;26.79;99744.56;5020241;28;20045;-83
2022/07/29 11:18:00;;;;;;;6.78;4.15;;;;;;;33.96;28.02;99752.91;5038749;28;20107;-83
2022/07/29 11:20:37;;;;;;;6.00;4.43;;;;;;;34.23;27.12;99743.31;5021546;28;20046;-83
2022/07/29 11:23:29;;;;;;;7.50;4.40;;;;;;;34.85;26.31;99738.38;5023751;28;20265;-83
2022/07/29 11:26:09;;;;;;;8.82;3.78;;;;;;;34.54;26.80;99735.47;5032600;28;20037;-83
2022/07/29 11:28:53;;;;;;;6.43;4.07;;;;;;;34.61;27.38;99732.41;5024877;28;20057;-83
2022/07/29 11:31:31;;;;;;;5.20;4.22;;;;;;;34.67;27.52;99732.09;5016983;28;20037;-83
2022/07/29 11:33:57;;;;;;;7.05;4.68;;;;;;;34.00;27.93;99733.03;5040793;28;20492;-83
2022/07/29 11:36:22;;;;;;;6.03;4.80;;;;;;;33.82;28.81;99740.31;5028598;28;20030;-83
2022/07/29 11:38:48;;;;;;;5.43;4.32;;;;;;;33.34;29.79;99728.06;5038378;28;20299;-83
2022/07/29 11:41:24;;;;;;;6.03;4.45;;;;;;;33.81;28.93;99735.94;5030695;28;20128;-83
2022/07/29 11:43:57;;;;;;;6.05;4.40;;;;;;;34.45;30.29;99731.28;5026625;28;20117;-83